Time;durP1;ratioP1;P1;durP2;ratioP2;P2;SDS_P1;SDS_P2;PMS_P1;PMS_P2;Temp;Humidity;BMP_temperature;BMP_pressure;BME280_temperature;BME280_humidity;BME280_pressure;Samples;Min_cycle;Max_cycle;Signal;HPM_P1;HPM_P2
2023/08/26 00:01:35;;;;;;;4.43;2.38;;;;;;;;;;5017502;28;20105;-80
2023/08/26 00:04:01;;;;;;;4.70;2.47;;;;;;;;;;5005537;28;20191;-81
2023/08/26 00:06:28;;;;;;;7.18;2.60;;;;;;;;;;4998691;28;20042;-80
2023/08/26 00:08:55;;;;;;;6.25;3.00;;;;;;;;;;4997232;28;20587;-81
2023/08/26 00:11:25;;;;;;;6.50;2.78;;;;;;;;;;4985311;28;20076;-82
2023/08/26 00:13:52;;;;;;;5.10;2.58;;;;;;;;;;5009697;28;20106;-81
2023/08/26 00:16:19;;;;;;;4.05;2.85;;;;;;;;;;5002921;28;20046;-81
2023/08/26 00:18:47;;;;;;;4.80;3.00;;;;;;;;;;5017836;28;20180;-81
2023/08/26 00:21:14;;;;;;;7.25;2.85;;;;;;;;;;4977246;28;21488;-83
2023/08/26 00:23:41;;;;;;;4.70;2.78;;;;;;;;;;4968278;28;20046;-81
2023/08/26 00:26:09;;;;;;;4.90;2.67;;;;;;;;;;4997847;28;20065;-81
2023/08/26 00:28:38;;;;;;;5.35;2.70;;;;;;;;;;4979546;28;20022;-82
2023/08/26 00:31:05;;;;;;;5.78;3.15;;;;;;;;;;4975125;28;20050;-83
2023/08/26 00:33:32;;;;;;;4.88;2.80;;;;;;;;;;4988656;28;20034;-80
2023/08/26 00:35:59;;;;;;;4.78;2.85;;;;;;;;;;4985924;28;20046;-82
2023/08/26 00:38:27;;;;;;;7.03;2.70;;;;;;;;;;4978759;28;20042;-81
2023/08/26 00:40:54;;;;;;;4.55;2.78;;;;;;;;;;4985710;28;20046;-81
2023/08/26 00:43:21;;;;;;;6.60;3.15;;;;;;;;;;4976586;28;20069;-81
2023/08/26 00:45:49;;;;;;;6.82;2.50;;;;;;;;;;4980433;28;20073;-80
2023/08/26 00:48:16;;;;;;;8.38;3.00;;;;;;;;;;4993428;28;21129;-82
2023/08/26 00:50:43;;;;;;;7.93;2.97;;;;;;;;;;4977494;28;20053;-82
2023/08/26 00:53:11;;;;;;;6.05;3.17;;;;;;;;;;4985727;28;20069;-83
2023/08/26 00:55:41;;;;;;;5.18;2.60;;;;;;;;;;5002127;28;20054;-83
2023/08/26 00:58:10;;;;;;;4.65;2.72;;;;;;;;;;4989031;28;20050;-83
2023/08/26 01:00:36;;;;;;;5.00;2.63;;;;;;;;;;4984278;28;20055;-82
2023/08/26 01:03:06;;;;;;;6.32;2.95;;;;;;;;;;4989154;28;20523;-82
2023/08/26 01:05:36;;;;;;;5.63;2.40;;;;;;;;;;4991727;28;20066;-82
2023/08/26 01:08:06;;;;;;;4.35;2.72;;;;;;;;;;5007587;28;20136;-82
2023/08/26 01:10:51;;;;;;;4.47;2.80;;;;;;;;;;4990489;28;20054;-82
2023/08/26 01:13:20;;;;;;;8.75;4.70;;;;;;;;;;5005506;28;21475;-82
2023/08/26 01:15:49;;;;;;;8.57;2.78;;;;;;;;;;4968403;28;20058;-80
2023/08/26 01:18:16;;;;;;;5.95;3.05;;;;;;;;;;4985509;28;20056;-81
2023/08/26 01:20:43;;;;;;;4.72;2.90;;;;;;;;;;4991554;28;20121;-81
2023/08/26 01:23:12;;;;;;;5.65;2.95;;;;;;;;;;4963113;28;20057;-81
2023/08/26 01:25:39;;;;;;;5.07;2.97;;;;;;;;;;4983635;28;20120;-80
2023/08/26 01:28:06;;;;;;;5.68;2.92;;;;;;;;;;4986599;28;20136;-81
2023/08/26 01:30:33;;;;;;;4.32;2.95;;;;;;;;;;4990952;28;20073;-82
2023/08/26 01:33:12;;;;;;;4.78;3.20;;;;;;;;;;4990698;28;20045;-83
2023/08/26 01:35:41;;;;;;;5.50;3.00;;;;;;;;;;4992152;28;20496;-82
2023/08/26 01:38:08;;;;;;;6.60;3.15;;;;;;;;;;4988991;28;20046;-82
2023/08/26 01:40:36;;;;;;;4.57;2.92;;;;;;;;;;4999513;28;20072;-82
2023/08/26 01:43:06;;;;;;;5.47;2.90;;;;;;;;;;4988679;28;20049;-81
2023/08/26 01:45:33;;;;;;;5.20;2.80;;;;;;;;;;4985425;28;20100;-83
2023/08/26 01:47:59;;;;;;;6.05;3.13;;;;;;;;;;5002396;28;20057;-82
2023/08/26 01:50:26;;;;;;;5.70;3.00;;;;;;;;;;4986980;28;20050;-82
2023/08/26 01:52:53;;;;;;;8.20;3.28;;;;;;;;;;4988088;28;20388;-83
2023/08/26 01:55:19;;;;;;;5.85;2.90;;;;;;;;;;4982464;28;20050;-81
2023/08/26 01:57:46;;;;;;;5.43;3.10;;;;;;;;;;4986502;28;20125;-82
2023/08/26 02:00:13;;;;;;;5.35;2.80;;;;;;;;;;4995370;28;20116;-81
2023/08/26 02:02:42;;;;;;;5.78;3.03;;;;;;;;;;5003929;28;20065;-82
2023/08/26 02:05:10;;;;;;;6.43;3.17;;;;;;;;;;4990250;28;20362;-81
2023/08/26 02:07:36;;;;;;;6.15;3.58;;;;;;;;;;4986180;28;20050;-82
2023/08/26 02:10:03;;;;;;;8.13;3.72;;;;;;;;;;4985029;28;20038;-82
2023/08/26 02:12:32;;;;;;;7.97;3.92;;;;;;;;;;4989012;28;20050;-82
2023/08/26 02:15:01;;;;;;;7.63;3.95;;;;;;;;;;4992962;28;20050;-82
2023/08/26 02:17:28;;;;;;;6.75;3.40;;;;;;;;;;4982508;28;20054;-81
2023/08/26 02:19:55;;;;;;;8.75;3.15;;;;;;;;;;4981853;28;20053;-82
2023/08/26 02:22:21;;;;;;;6.97;3.25;;;;;;;;;;4985598;28;20046;-82
2023/08/26 02:24:48;;;;;;;7.30;3.10;;;;;;;;;;4989785;28;20490;-81
2023/08/26 02:27:15;;;;;;;5.70;3.22;;;;;;;;;;5001162;28;20054;-82
2023/08/26 02:29:41;;;;;;;7.03;3.53;;;;;;;;;;4992260;28;20041;-82
2023/08/26 02:32:08;;;;;;;6.38;3.40;;;;;;;;;;4976682;28;20092;-82
2023/08/26 02:34:37;;;;;;;4.80;3.35;;;;;;;;;;4982094;28;20586;-82
2023/08/26 02:37:03;;;;;;;6.53;3.00;;;;;;;;;;4992580;28;20042;-82
2023/08/26 02:39:32;;;;;;;7.38;3.28;;;;;;;;;;4969000;28;20035;-81
2023/08/26 02:41:58;;;;;;;7.75;3.75;;;;;;;;;;4999783;28;20038;-81
2023/08/26 02:44:26;;;;;;;9.57;3.30;;;;;;;;;;4997765;28;20068;-82
2023/08/26 02:46:54;;;;;;;5.22;3.13;;;;;;;;;;4990295;28;20246;-82
2023/08/26 02:49:20;;;;;;;6.20;3.38;;;;;;;;;;4985856;28;20125;-81
2023/08/26 02:51:47;;;;;;;5.88;3.17;;;;;;;;;;5000153;28;20042;-82
2023/08/26 02:54:14;;;;;;;6.88;3.33;;;;;;;;;;4994656;28;20042;-82
2023/08/26 02:56:40;;;;;;;4.53;3.00;;;;;;;;;;4977158;28;20042;-81
2023/08/26 02:59:07;;;;;;;7.72;3.38;;;;;;;;;;4997952;28;20057;-82
2023/08/26 03:01:36;;;;;;;6.38;3.80;;;;;;;;;;4995179;28;20489;-82
2023/08/26 03:04:03;;;;;;;6.25;3.63;;;;;;;;;;4995972;28;20053;-82
2023/08/26 03:06:30;;;;;;;4.85;2.88;;;;;;;;;;4998360;28;20052;-82
2023/08/26 03:08:57;;;;;;;8.55;3.10;;;;;;;;;;4998974;28;20049;-81
2023/08/26 03:11:24;;;;;;;4.55;3.03;;;;;;;;;;5005339;28;20447;-82
2023/08/26 03:13:51;;;;;;;5.28;3.20;;;;;;;;;;4998542;28;20499;-83
2023/08/26 03:16:18;;;;;;;6.20;3.10;;;;;;;;;;4999268;28;20293;-82
2023/08/26 03:18:45;;;;;;;7.95;3.53;;;;;;;;;;5010228;28;20089;-82
2023/08/26 03:21:12;;;;;;;6.18;3.17;;;;;;;;;;4988310;28;20619;-82
2023/08/26 03:23:39;;;;;;;4.95;3.10;;;;;;;;;;5008423;28;20410;-82
2023/08/26 03:26:06;;;;;;;6.43;3.35;;;;;;;;;;5007850;28;20532;-83
2023/08/26 03:28:33;;;;;;;6.97;3.17;;;;;;;;;;4987486;28;20636;-82
2023/08/26 03:31:05;;;;;;;5.00;3.00;;;;;;;;;;4995138;28;20061;-82
2023/08/26 03:33:34;;;;;;;4.72;3.28;;;;;;;;;;5008018;28;20416;-83
2023/08/26 03:36:04;;;;;;;5.50;2.90;;;;;;;;;;4999071;28;20428;-82
2023/08/26 03:38:32;;;;;;;5.05;3.30;;;;;;;;;;4993693;28;20120;-83
2023/08/26 03:41:01;;;;;;;5.53;3.50;;;;;;;;;;5000549;28;20409;-82
2023/08/26 03:43:28;;;;;;;6.38;3.40;;;;;;;;;;5001430;28;20440;-82
2023/08/26 03:45:54;;;;;;;9.30;3.58;;;;;;;;;;4997791;28;20112;-81
2023/08/26 03:48:21;;;;;;;5.97;3.30;;;;;;;;;;5011460;28;20054;-81
2023/08/26 03:50:49;;;;;;;6.38;3.92;;;;;;;;;;4972946;28;20046;-82
2023/08/26 03:53:15;;;;;;;8.13;3.72;;;;;;;;;;5001631;28;20064;-82
2023/08/26 03:55:42;;;;;;;6.90;3.85;;;;;;;;;;4983923;28;20103;-82
2023/08/26 03:58:09;;;;;;;8.45;3.92;;;;;;;;;;5000121;28;20076;-83
2023/08/26 04:00:36;;;;;;;7.38;3.92;;;;;;;;;;4985503;28;20056;-82
2023/08/26 04:03:08;;;;;;;9.15;4.50;;;;;;;;;;4980310;28;20272;-84
2023/08/26 04:05:35;;;;;;;8.57;4.70;;;;;;;;;;4986129;28;20046;-82
2023/08/26 04:08:02;;;;;;;7.05;4.30;;;;;;;;;;4985724;28;20397;-82
2023/08/26 04:10:29;;;;;;;11.70;4.80;;;;;;;;;;4986606;28;20092;-82
2023/08/26 04:13:17;;;;;;;8.18;4.18;;;;;;;;;;4987362;28;20066;-82
2023/08/26 04:15:44;;;;;;;9.43;5.00;;;;;;;;;;4991242;28;21131;-81
2023/08/26 04:18:12;;;;;;;7.50;4.50;;;;;;;;;;4987049;28;20077;-83
2023/08/26 04:20:39;;;;;;;13.40;4.80;;;;;;;;;;4969503;28;20691;-83
2023/08/26 04:23:05;;;;;;;7.43;4.70;;;;;;;;;;4985493;28;20046;-81
2023/08/26 04:25:32;;;;;;;9.65;5.03;;;;;;;;;;4978966;28;20058;-81
2023/08/26 04:27:58;;;;;;;8.13;4.53;;;;;;;;;;4993563;28;20052;-82
2023/08/26 04:30:25;;;;;;;10.05;4.97;;;;;;;;;;4984034;28;20516;-83
2023/08/26 04:32:52;;;;;;;6.75;4.57;;;;;;;;;;4988136;28;20108;-80
2023/08/26 04:35:22;;;;;;;7.63;4.68;;;;;;;;;;4974672;28;20510;-81
2023/08/26 04:37:48;;;;;;;7.75;3.92;;;;;;;;;;4999233;28;20046;-80
2023/08/26 04:40:15;;;;;;;8.55;4.35;;;;;;;;;;4996526;28;20129;-81
2023/08/26 04:42:42;;;;;;;10.70;3.97;;;;;;;;;;5003150;28;20205;-82
2023/08/26 04:45:09;;;;;;;8.68;4.20;;;;;;;;;;4996340;28;20045;-80
2023/08/26 04:47:36;;;;;;;6.75;4.35;;;;;;;;;;4990123;28;20057;-83
2023/08/26 04:50:04;;;;;;;10.77;4.05;;;;;;;;;;4996623;28;20041;-80
2023/08/26 04:52:30;;;;;;;8.95;4.00;;;;;;;;;;4990599;28;20042;-81
2023/08/26 04:54:57;;;;;;;7.32;3.70;;;;;;;;;;5004588;28;20038;-82
2023/08/26 04:57:23;;;;;;;8.88;3.88;;;;;;;;;;4992382;28;20049;-82
2023/08/26 04:59:50;;;;;;;5.78;3.25;;;;;;;;;;4994737;28;20039;-82
2023/08/26 05:02:17;;;;;;;10.65;3.60;;;;;;;;;;4987832;28;20046;-82
2023/08/26 05:04:46;;;;;;;6.85;3.50;;;;;;;;;;5008397;28;20779;-82
2023/08/26 05:07:13;;;;;;;6.28;4.07;;;;;;;;;;4989793;28;20060;-82
2023/08/26 05:09:40;;;;;;;8.60;4.32;;;;;;;;;;4985405;28;20061;-83
2023/08/26 05:12:07;;;;;;;6.28;3.83;;;;;;;;;;5001842;28;20046;-83
2023/08/26 05:14:36;;;;;;;10.05;4.07;;;;;;;;;;5001662;28;20050;-82
2023/08/26 05:17:02;;;;;;;7.43;4.00;;;;;;;;;;5004480;28;20129;-81
2023/08/26 05:19:29;;;;;;;9.35;3.97;;;;;;;;;;5003661;28;20524;-83
2023/08/26 05:21:57;;;;;;;6.35;4.30;;;;;;;;;;5024158;28;20563;-81
2023/08/26 05:24:25;;;;;;;8.82;3.83;;;;;;;;;;5001637;28;20096;-82
2023/08/26 05:26:56;;;;;;;6.93;4.10;;;;;;;;;;4994490;28;20042;-81
2023/08/26 05:29:24;;;;;;;6.95;4.30;;;;;;;;;;5001124;28;20038;-81
2023/08/26 05:31:52;;;;;;;6.63;3.78;;;;;;;;;;5008732;28;20049;-80
2023/08/26 05:34:19;;;;;;;9.38;4.00;;;;;;;;;;5008027;28;20056;-81
2023/08/26 05:36:46;;;;;;;8.73;4.45;;;;;;;;;;4998267;28;20058;-81
2023/08/26 05:39:13;;;;;;;9.60;4.32;;;;;;;;;;4999278;28;20465;-81
2023/08/26 05:41:40;;;;;;;8.00;4.20;;;;;;;;;;4999800;28;20062;-80
2023/08/26 05:44:06;;;;;;;8.63;4.13;;;;;;;;;;5003526;28;20041;-81
2023/08/26 05:46:33;;;;;;;4.82;3.80;;;;;;;;;;5000237;28;20069;-82
2023/08/26 05:49:00;;;;;;;10.73;4.90;;;;;;;;;;5005548;28;20054;-81
2023/08/26 05:51:27;;;;;;;7.88;4.25;;;;;;;;;;5018749;28;20050;-82
2023/08/26 05:53:53;;;;;;;7.82;4.20;;;;;;;;;;4999610;28;20046;-80
2023/08/26 05:56:21;;;;;;;5.90;3.78;;;;;;;;;;5002722;28;20065;-82
2023/08/26 05:58:47;;;;;;;7.55;3.83;;;;;;;;;;4995490;28;20042;-78
2023/08/26 06:01:14;;;;;;;7.65;3.58;;;;;;;;;;4996910;28;20053;-81
2023/08/26 06:03:40;;;;;;;7.47;4.05;;;;;;;;;;4981629;28;20054;-82
2023/08/26 06:06:07;;;;;;;6.47;3.60;;;;;;;;;;4994470;28;20050;-81
2023/08/26 06:08:34;;;;;;;6.70;3.85;;;;;;;;;;4976786;28;20077;-82
2023/08/26 06:11:00;;;;;;;7.03;3.30;;;;;;;;;;5002700;28;20156;-80
2023/08/26 06:13:28;;;;;;;5.65;3.15;;;;;;;;;;5015598;28;20070;-81
2023/08/26 06:15:57;;;;;;;4.55;3.20;;;;;;;;;;5001843;28;20129;-80
2023/08/26 06:18:25;;;;;;;5.55;3.10;;;;;;;;;;4981759;28;20042;-79
2023/08/26 06:20:52;;;;;;;7.82;3.33;;;;;;;;;;4983493;28;20545;-79
2023/08/26 06:23:19;;;;;;;6.65;2.83;;;;;;;;;;5003721;28;20543;-78
2023/08/26 06:25:52;;;;;;;3.60;2.25;;;;;;;;;;5016230;28;20046;-78
2023/08/26 06:28:18;;;;;;;4.55;2.70;;;;;;;;;;4994420;28;20042;-80
2023/08/26 06:30:46;;;;;;;5.07;2.53;;;;;;;;;;4996831;28;20060;-81
2023/08/26 06:33:13;;;;;;;3.72;2.10;;;;;;;;;;4986490;28;20053;-80
2023/08/26 06:35:40;;;;;;;4.15;2.20;;;;;;;;;;5005386;28;20053;-79
2023/08/26 06:38:08;;;;;;;3.85;2.38;;;;;;;;;;4994214;28;20574;-80
2023/08/26 06:40:35;;;;;;;4.22;2.50;;;;;;;;;;4983217;28;20081;-79
2023/08/26 06:43:03;;;;;;;4.32;2.40;;;;;;;;;;4998366;28;20515;-79
2023/08/26 06:45:34;;;;;;;4.13;2.00;;;;;;;;;;4999425;28;20041;-77
2023/08/26 06:48:04;;;;;;;3.40;2.28;;;;;;;;;;4991560;28;20045;-79
2023/08/26 06:50:34;;;;;;;6.95;2.88;;;;;;;;;;4997340;28;20054;-79
2023/08/26 06:53:01;;;;;;;3.83;2.25;;;;;;;;;;4999818;28;20057;-80
2023/08/26 06:55:27;;;;;;;3.67;2.03;;;;;;;;;;4991766;28;20054;-80
2023/08/26 06:57:54;;;;;;;3.35;2.03;;;;;;;;;;4991867;28;20049;-80
2023/08/26 07:00:21;;;;;;;3.15;2.20;;;;;;;;;;5000599;28;20058;-80
2023/08/26 07:02:48;;;;;;;3.15;1.95;;;;;;;;;;4994263;28;20054;-80
2023/08/26 07:05:15;;;;;;;6.60;2.33;;;;;;;;;;4991819;28;20152;-80
2023/08/26 07:07:42;;;;;;;5.10;2.20;;;;;;;;;;4993874;28;20042;-80
2023/08/26 07:10:09;;;;;;;3.72;2.00;;;;;;;;;;5003832;28;20149;-81
2023/08/26 07:12:36;;;;;;;4.90;2.05;;;;;;;;;;4999275;28;20424;-78
2023/08/26 07:15:03;;;;;;;3.42;1.98;;;;;;;;;;5001050;28;20602;-80
2023/08/26 07:17:29;;;;;;;2.63;1.88;;;;;;;;;;5002462;28;20065;-78
2023/08/26 07:19:56;;;;;;;3.97;2.10;;;;;;;;;;4997850;28;20045;-80
2023/08/26 07:22:23;;;;;;;4.32;2.13;;;;;;;;;;4995182;28;20527;-81
2023/08/26 07:24:55;;;;;;;4.53;2.05;;;;;;;;;;4994758;28;20625;-79
2023/08/26 07:27:24;;;;;;;5.20;2.25;;;;;;;;;;4995999;28;20049;-79
2023/08/26 07:29:51;;;;;;;5.32;2.20;;;;;;;;;;5003406;28;20050;-80
2023/08/26 07:32:17;;;;;;;4.93;2.10;;;;;;;;;;5011265;28;20041;-82
2023/08/26 07:34:44;;;;;;;3.28;1.80;;;;;;;;;;4987420;28;20053;-81
2023/08/26 07:37:11;;;;;;;3.17;2.13;;;;;;;;;;4992132;28;20050;-80
2023/08/26 07:39:38;;;;;;;3.90;2.40;;;;;;;;;;5011758;28;20026;-80
2023/08/26 07:42:05;;;;;;;3.45;1.95;;;;;;;;;;5015827;28;20056;-81
2023/08/26 07:44:31;;;;;;;3.58;2.00;;;;;;;;;;5010935;28;20050;-80
2023/08/26 07:46:58;;;;;;;4.30;2.08;;;;;;;;;;5012178;28;20066;-80
2023/08/26 07:49:25;;;;;;;3.70;2.08;;;;;;;;;;5010847;28;20679;-80
2023/08/26 07:51:51;;;;;;;4.97;2.20;;;;;;;;;;5008555;28;20073;-82
2023/08/26 07:54:18;;;;;;;2.83;2.00;;;;;;;;;;4993983;28;20041;-79
2023/08/26 07:56:45;;;;;;;4.43;1.88;;;;;;;;;;5002600;28;20504;-81
2023/08/26 07:59:11;;;;;;;5.18;2.10;;;;;;;;;;4981362;28;20053;-79
2023/08/26 08:01:38;;;;;;;5.95;2.10;;;;;;;;;;5000397;28;20162;-79
2023/08/26 08:04:05;;;;;;;3.80;2.13;;;;;;;;;;4996102;28;20108;-81
2023/08/26 08:06:32;;;;;;;3.95;2.08;;;;;;;;;;4975036;28;20041;-80
2023/08/26 08:08:59;;;;;;;3.42;2.10;;;;;;;;;;4999436;28;20049;-80
2023/08/26 08:11:25;;;;;;;3.40;2.00;;;;;;;;;;4970688;28;20504;-79
2023/08/26 08:13:52;;;;;;;4.93;2.72;;;;;;;;;;5000467;28;20149;-78
2023/08/26 08:16:19;;;;;;;3.47;2.05;;;;;;;;;;4992778;28;20452;-78
2023/08/26 08:18:45;;;;;;;4.93;2.00;;;;;;;;;;4990809;28;20125;-77
2023/08/26 08:21:12;;;;;;;2.42;2.00;;;;;;;;;;4985033;28;20110;-78
2023/08/26 08:23:41;;;;;;;4.88;2.47;;;;;;;;;;4995659;28;20224;-77
2023/08/26 08:26:08;;;;;;;4.72;2.20;;;;;;;;;;4981103;28;20048;-82
2023/08/26 08:28:34;;;;;;;5.88;2.35;;;;;;;;;;5001496;28;20046;-79
2023/08/26 08:31:01;;;;;;;5.55;2.60;;;;;;;;;;4991556;28;20049;-80
2023/08/26 08:33:28;;;;;;;7.15;2.50;;;;;;;;;;5007851;28;20047;-78
2023/08/26 08:35:54;;;;;;;4.97;2.03;;;;;;;;;;4985772;28;20070;-78
2023/08/26 08:38:21;;;;;;;3.47;2.20;;;;;;;;;;5004026;28;20081;-79
2023/08/26 08:40:48;;;;;;;5.25;2.40;;;;;;;;;;4993894;28;20046;-79
2023/08/26 08:43:16;;;;;;;8.45;2.45;;;;;;;;;;5002468;28;20039;-79
2023/08/26 08:45:42;;;;;;;5.32;2.42;;;;;;;;;;5021375;28;20049;-77
2023/08/26 08:48:10;;;;;;;5.43;2.50;;;;;;;;;;5004783;28;20099;-80
2023/08/26 08:50:37;;;;;;;6.03;2.45;;;;;;;;;;5021130;28;20459;-80
2023/08/26 08:53:05;;;;;;;6.22;2.35;;;;;;;;;;4994579;28;20050;-79
2023/08/26 08:55:32;;;;;;;4.88;2.15;;;;;;;;;;4987614;28;20126;-79
2023/08/26 08:58:00;;;;;;;6.53;2.10;;;;;;;;;;4986928;28;20218;-77
2023/08/26 09:00:28;;;;;;;5.32;2.33;;;;;;;;;;4997560;28;20501;-79
2023/08/26 09:02:57;;;;;;;5.93;2.45;;;;;;;;;;4979784;28;20042;-77
2023/08/26 09:05:24;;;;;;;7.53;2.42;;;;;;;;;;4985592;28;20302;-79
2023/08/26 09:07:51;;;;;;;5.45;2.20;;;;;;;;;;4970812;28;20074;-77
2023/08/26 09:10:18;;;;;;;6.35;2.38;;;;;;;;;;5001546;28;20045;-79
2023/08/26 09:12:45;;;;;;;5.75;2.60;;;;;;;;;;5009351;28;20127;-78
2023/08/26 09:15:11;;;;;;;6.00;2.50;;;;;;;;;;5005917;28;20057;-80
2023/08/26 09:17:43;;;;;;;1.60;1.23;;;;;;;;;;4995898;28;20045;-78
2023/08/26 09:20:10;;;;;;;1.63;1.08;;;;;;;;;;5017278;28;20069;-78
2023/08/26 09:22:37;;;;;;;2.10;1.20;;;;;;;;;;5012851;28;20049;-78
2023/08/26 09:25:04;;;;;;;3.28;1.48;;;;;;;;;;4997720;28;20046;-79
2023/08/26 09:27:39;;;;;;;2.95;1.20;;;;;;;;;;4994576;28;20841;-77
2023/08/26 09:30:07;;;;;;;3.65;1.40;;;;;;;;;;5013264;28;20054;-79
2023/08/26 09:32:34;;;;;;;4.05;1.20;;;;;;;;;;5015445;28;20054;-77
2023/08/26 09:35:10;;;;;;;6.32;1.30;;;;;;;;;;4991629;28;20054;-78
2023/08/26 09:37:37;;;;;;;3.60;1.50;;;;;;;;;;5000099;28;20038;-78
2023/08/26 09:40:05;;;;;;;2.78;1.25;;;;;;;;;;4983829;28;20066;-77
2023/08/26 09:42:31;;;;;;;2.45;1.70;;;;;;;;;;5001157;28;20053;-78
2023/08/26 09:44:58;;;;;;;3.05;1.40;;;;;;;;;;5005360;28;20066;-79
2023/08/26 09:47:29;;;;;;;4.05;1.67;;;;;;;;;;4981373;28;20049;-78
2023/08/26 09:49:56;;;;;;;7.72;1.65;;;;;;;;;;4953505;28;20119;-78
2023/08/26 09:52:23;;;;;;;6.13;1.80;;;;;;;;;;4973235;28;20055;-78
2023/08/26 09:54:51;;;;;;;5.10;1.60;;;;;;;;;;5000140;28;20061;-79
2023/08/26 09:57:18;;;;;;;3.22;1.50;;;;;;;;;;4988961;28;20110;-79
2023/08/26 09:59:44;;;;;;;2.45;1.55;;;;;;;;;;4987028;28;20057;-79
2023/08/26 10:02:20;;;;;;;4.70;1.55;;;;;;;;;;4990612;28;20054;-78
2023/08/26 10:04:48;;;;;;;3.20;1.60;;;;;;;;;;4984719;28;20050;-78
2023/08/26 10:07:15;;;;;;;7.25;1.70;;;;;;;;;;4992608;28;20046;-80
2023/08/26 10:09:51;;;;;;;3.80;1.63;;;;;;;;;;4992899;28;20042;-81
2023/08/26 10:12:20;;;;;;;3.97;1.80;;;;;;;;;;5010329;28;20541;-78
2023/08/26 10:14:49;;;;;;;2.80;1.60;;;;;;;;;;5007174;28;20520;-77
2023/08/26 10:17:17;;;;;;;5.53;1.92;;;;;;;;;;5005140;28;20559;-78
2023/08/26 10:19:44;;;;;;;5.10;2.00;;;;;;;;;;5005039;28;20066;-79
2023/08/26 10:22:11;;;;;;;5.95;1.50;;;;;;;;;;5007031;28;20598;-80
2023/08/26 10:24:38;;;;;;;3.72;1.85;;;;;;;;;;5013946;28;20038;-78
2023/08/26 10:27:07;;;;;;;3.20;1.88;;;;;;;;;;5016024;28;20516;-78
2023/08/26 10:29:38;;;;;;;6.13;2.10;;;;;;;;;;5002391;28;20555;-77
2023/08/26 10:32:15;;;;;;;4.82;1.92;;;;;;;;;;5005092;28;20069;-80
2023/08/26 10:34:56;;;;;;;5.97;2.25;;;;;;;;;;5001477;28;20054;-78
2023/08/26 10:37:27;;;;;;;5.40;1.90;;;;;;;;;;4999648;28;20339;-78
2023/08/26 10:39:54;;;;;;;4.18;2.08;;;;;;;;;;4993091;28;20035;-78
2023/08/26 10:42:21;;;;;;;5.30;1.85;;;;;;;;;;5011726;28;20073;-78
2023/08/26 10:44:55;;;;;;;5.70;1.90;;;;;;;;;;5002808;28;20128;-79
2023/08/26 10:47:35;;;;;;;4.65;2.00;;;;;;;;;;4996454;28;20327;-78
2023/08/26 10:50:20;;;;;;;5.70;2.05;;;;;;;;;;5019121;28;20656;-77
2023/08/26 10:52:52;;;;;;;4.25;2.00;;;;;;;;;;5003003;28;20069;-77
2023/08/26 10:55:25;;;;;;;4.85;2.15;;;;;;;;;;4984688;28;20705;-79
2023/08/26 10:58:08;;;;;;;3.85;2.15;;;;;;;;;;5024409;28;20752;-78
2023/08/26 11:00:36;;;;;;;4.28;1.88;;;;;;;;;;5000875;28;20053;-77
2023/08/26 11:03:03;;;;;;;5.13;1.60;;;;;;;;;;5013830;28;20053;-78
2023/08/26 11:05:30;;;;;;;9.38;2.35;;;;;;;;;;5006428;28;20049;-79
2023/08/26 11:07:56;;;;;;;3.08;1.88;;;;;;;;;;4999607;28;20043;-79
2023/08/26 11:10:27;;;;;;;4.53;2.10;;;;;;;;;;5006362;28;20054;-78
2023/08/26 11:12:54;;;;;;;6.55;1.80;;;;;;;;;;5007682;28;20446;-79
2023/08/26 11:15:21;;;;;;;5.68;1.95;;;;;;;;;;4993934;28;20053;-78
2023/08/26 11:17:48;;;;;;;5.47;1.90;;;;;;;;;;5003380;28;20162;-78
2023/08/26 11:20:18;;;;;;;3.47;1.95;;;;;;;;;;4999174;28;20050;-79
2023/08/26 11:22:45;;;;;;;4.80;1.75;;;;;;;;;;4981367;28;20056;-78
2023/08/26 11:25:18;;;;;;;5.55;2.00;;;;;;;;;;4980556;28;20899;-80
2023/08/26 11:27:44;;;;;;;5.72;1.73;;;;;;;;;;4981862;28;20126;-78
2023/08/26 11:30:12;;;;;;;4.28;2.08;;;;;;;;;;4996214;28;20104;-79
2023/08/26 11:32:39;;;;;;;4.10;1.88;;;;;;;;;;5006966;28;20042;-78
2023/08/26 11:35:10;;;;;;;4.63;1.63;;;;;;;;;;4982613;28;20049;-79
2023/08/26 11:37:41;;;;;;;6.15;2.10;;;;;;;;;;4984972;28;20088;-78
2023/08/26 11:40:08;;;;;;;7.88;2.25;;;;;;;;;;4997330;28;20133;-78
2023/08/26 11:42:35;;;;;;;6.32;2.10;;;;;;;;;;4981649;28;20045;-77
2023/08/26 11:45:02;;;;;;;5.88;2.20;;;;;;;;;;4993834;28;20054;-77
2023/08/26 11:47:30;;;;;;;3.97;2.08;;;;;;;;;;4985978;28;20081;-79
2023/08/26 11:49:57;;;;;;;6.28;1.80;;;;;;;;;;4988511;28;20073;-78
2023/08/26 11:52:36;;;;;;;4.22;1.90;;;;;;;;;;4978294;28;20046;-79
2023/08/26 11:55:03;;;;;;;6.82;1.90;;;;;;;;;;4978637;28;20624;-78
2023/08/26 11:57:32;;;;;;;5.65;1.80;;;;;;;;;;4985130;28;20060;-79
2023/08/26 12:00:07;;;;;;;5.68;2.08;;;;;;;;;;5007115;28;20057;-77
2023/08/26 12:02:38;;;;;;;6.97;2.00;;;;;;;;;;4983569;28;20707;-79
2023/08/26 12:05:04;;;;;;;2.53;1.45;;;;;;;;;;5008490;28;20539;-78
2023/08/26 12:07:31;;;;;;;2.63;1.60;;;;;;;;;;4986320;28;20050;-78
2023/08/26 12:09:59;;;;;;;6.18;1.70;;;;;;;;;;4983344;28;20065;-79
2023/08/26 12:12:26;;;;;;;4.07;1.85;;;;;;;;;;4999409;28;20050;-76
2023/08/26 12:15:04;;;;;;;5.03;1.85;;;;;;;;;;4984534;28;20050;-78
2023/08/26 12:17:30;;;;;;;7.97;2.00;;;;;;;;;;5003151;28;20366;-79
2023/08/26 12:19:57;;;;;;;7.88;2.25;;;;;;;;;;4986754;28;21537;-78
2023/08/26 12:22:24;;;;;;;6.43;2.20;;;;;;;;;;4994781;28;20050;-78
2023/08/26 12:24:55;;;;;;;10.93;2.40;;;;;;;;;;4998575;28;20217;-77
2023/08/26 12:27:22;;;;;;;9.15;2.17;;;;;;;;;;5007917;28;20050;-80
2023/08/26 12:29:48;;;;;;;13.80;2.65;;;;;;;;;;5002405;28;20038;-78
2023/08/26 12:32:15;;;;;;;7.43;2.60;;;;;;;;;;5006022;28;20054;-78
2023/08/26 12:34:42;;;;;;;4.55;1.75;;;;;;;;;;4983564;28;20042;-79
2023/08/26 12:37:09;;;;;;;7.95;2.00;;;;;;;;;;4992244;28;20053;-78
2023/08/26 12:39:35;;;;;;;5.05;2.00;;;;;;;;;;5001979;28;20129;-78
2023/08/26 12:42:02;;;;;;;6.22;2.05;;;;;;;;;;5002698;28;20417;-78
2023/08/26 12:44:29;;;;;;;10.77;1.88;;;;;;;;;;4987275;28;20065;-78
2023/08/26 12:46:55;;;;;;;9.18;1.73;;;;;;;;;;4992090;28;20061;-78
2023/08/26 12:49:22;;;;;;;8.05;1.98;;;;;;;;;;5003017;28;20045;-78
2023/08/26 12:51:54;;;;;;;6.40;1.73;;;;;;;;;;5004473;28;20057;-79
2023/08/26 12:54:20;;;;;;;7.45;1.63;;;;;;;;;;5005452;28;20046;-79
2023/08/26 12:56:47;;;;;;;6.47;1.67;;;;;;;;;;5011567;28;20451;-79
2023/08/26 12:59:14;;;;;;;6.93;2.05;;;;;;;;;;4995368;28;20535;-79
2023/08/26 13:01:40;;;;;;;7.80;1.77;;;;;;;;;;5019856;28;20121;-80
2023/08/26 13:04:07;;;;;;;5.93;1.60;;;;;;;;;;5025695;28;20050;-77
2023/08/26 13:06:34;;;;;;;9.85;1.90;;;;;;;;;;4999931;28;20275;-79
2023/08/26 13:09:00;;;;;;;8.50;1.98;;;;;;;;;;5001353;28;20042;-79
2023/08/26 13:11:27;;;;;;;8.63;2.00;;;;;;;;;;5015642;28;20046;-79
2023/08/26 13:13:53;;;;;;;8.93;1.90;;;;;;;;;;5008092;28;20042;-80
2023/08/26 13:16:20;;;;;;;6.45;1.92;;;;;;;;;;5002709;28;20100;-79
2023/08/26 13:18:47;;;;;;;8.27;1.73;;;;;;;;;;4997065;28;20045;-79
2023/08/26 13:21:13;;;;;;;9.55;1.98;;;;;;;;;;5004204;28;20125;-79
2023/08/26 13:23:40;;;;;;;7.75;1.90;;;;;;;;;;5025455;28;20042;-79
2023/08/26 13:26:07;;;;;;;9.10;1.92;;;;;;;;;;5001937;28;20157;-79
2023/08/26 13:28:33;;;;;;;5.85;2.00;;;;;;;;;;4998486;28;20060;-80
2023/08/26 13:31:02;;;;;;;6.57;1.60;;;;;;;;;;4990859;28;20061;-80
2023/08/26 13:33:29;;;;;;;5.47;1.70;;;;;;;;;;5003329;28;20590;-79
2023/08/26 13:35:56;;;;;;;3.80;1.90;;;;;;;;;;4998320;28;20532;-80
2023/08/26 13:38:22;;;;;;;7.35;1.85;;;;;;;;;;5002015;28;20234;-80
2023/08/26 13:40:49;;;;;;;8.50;1.67;;;;;;;;;;5001468;28;20046;-80
2023/08/26 13:43:16;;;;;;;5.72;1.77;;;;;;;;;;5009682;28;20065;-80
2023/08/26 13:45:42;;;;;;;8.32;1.75;;;;;;;;;;5009745;28;20504;-79
2023/08/26 13:48:09;;;;;;;5.75;2.13;;;;;;;;;;5004112;28;20050;-79
2023/08/26 13:50:35;;;;;;;5.50;1.80;;;;;;;;;;5003684;28;20042;-80
2023/08/26 13:53:02;;;;;;;7.82;1.50;;;;;;;;;;4994085;28;20054;-79
2023/08/26 13:55:29;;;;;;;7.10;2.05;;;;;;;;;;4998758;28;20054;-80
2023/08/26 13:57:56;;;;;;;6.78;1.85;;;;;;;;;;4995436;28;20124;-79
2023/08/26 14:00:23;;;;;;;5.60;2.35;;;;;;;;;;5004451;28;20573;-80
2023/08/26 14:02:49;;;;;;;7.40;1.88;;;;;;;;;;5010489;28;20090;-78
2023/08/26 14:05:16;;;;;;;9.38;1.90;;;;;;;;;;5033882;28;20037;-78
2023/08/26 14:07:44;;;;;;;5.05;1.88;;;;;;;;;;5016421;28;20038;-79
2023/08/26 14:10:11;;;;;;;5.88;1.75;;;;;;;;;;5023362;28;20741;-78
2023/08/26 14:12:40;;;;;;;6.68;1.45;;;;;;;;;;5018245;28;20041;-78
2023/08/26 14:15:08;;;;;;;7.47;2.10;;;;;;;;;;5020309;28;20030;-78
2023/08/26 14:17:35;;;;;;;8.85;2.05;;;;;;;;;;5024072;28;20066;-79
2023/08/26 14:20:03;;;;;;;7.22;1.88;;;;;;;;;;5015297;28;20392;-78
2023/08/26 14:22:29;;;;;;;5.35;1.83;;;;;;;;;;5005744;28;20168;-79
2023/08/26 14:24:56;;;;;;;5.07;1.65;;;;;;;;;;4994678;28;20045;-79
2023/08/26 14:27:22;;;;;;;8.43;2.05;;;;;;;;;;5004596;28;20050;-80
2023/08/26 14:29:49;;;;;;;6.20;1.50;;;;;;;;;;5002849;28;20058;-79
2023/08/26 14:32:16;;;;;;;7.30;2.13;;;;;;;;;;5008616;28;20053;-79
2023/08/26 14:34:42;;;;;;;7.50;2.15;;;;;;;;;;5000614;28;20045;-79
2023/08/26 14:37:09;;;;;;;6.07;1.85;;;;;;;;;;5007413;28;20419;-80
2023/08/26 14:39:38;;;;;;;6.25;1.60;;;;;;;;;;5000803;28;20038;-77
2023/08/26 14:42:04;;;;;;;10.98;2.25;;;;;;;;;;4993853;28;20050;-80
2023/08/26 14:44:32;;;;;;;6.88;1.83;;;;;;;;;;4998636;28;20421;-78
2023/08/26 14:46:59;;;;;;;4.13;1.77;;;;;;;;;;5000542;28;20428;-80